Terminal Aerodrome Forecast
Issued by NWS

Home | Current Version | Previous Version | Text Only | Print | Product List | Glossary On
Versions: 1 2 3 4 5 6 7 8 9 10 11 12 13 14 15 16 17 18 19 20 21
000
FTUS46 KLOX 260308 AAA
TAFLGB
TAF AMD
KLGB 260308Z 2603/2624 22008KT P6SM SCT025 BKN040
     FM260600 17006KT P6SM -DZ BKN025 OVC040
     FM261500 17006KT P6SM SCT025 BKN040
     FM262000 19008KT P6SM SCT040=

USA.gov is the U.S. government's official web portal to all federal, state and local government web resources and services.